createdAt,value
2023-04-15T00:01:13.530Z,15.00
2023-04-15T00:03:42.313Z,14.50
2023-04-15T00:06:10.378Z,14.70
2023-04-15T00:08:38.720Z,15.20
2023-04-15T00:11:06.898Z,15.00
2023-04-15T00:13:35.011Z,14.50
2023-04-15T00:16:02.953Z,14.90
2023-04-15T00:18:31.887Z,14.80
2023-04-15T00:21:00.295Z,14.50
2023-04-15T00:23:28.611Z,14.40
2023-04-15T00:25:56.961Z,14.40
2023-04-15T00:28:24.970Z,14.60
2023-04-15T00:30:53.133Z,15.70
2023-04-15T00:33:21.586Z,14.30
2023-04-15T00:35:49.524Z,14.50
2023-04-15T00:38:19.102Z,15.50
2023-04-15T00:40:47.158Z,14.70
2023-04-15T00:43:15.231Z,14.70
2023-04-15T00:45:43.660Z,14.80
2023-04-15T00:48:12.480Z,15.30
2023-04-15T00:50:40.446Z,14.30
2023-04-15T00:53:08.397Z,14.50
2023-04-15T00:55:36.509Z,15.70
2023-04-15T00:58:04.527Z,14.80
2023-04-15T01:00:32.446Z,15.40
2023-04-15T01:03:01.042Z,15.30
2023-04-15T01:05:30.660Z,14.90
2023-04-15T01:07:58.657Z,14.30
2023-04-15T01:10:27.598Z,14.90
2023-04-15T01:12:55.768Z,14.80
2023-04-15T01:15:24.553Z,15.50
2023-04-15T01:17:52.874Z,14.80
2023-04-15T01:20:22.273Z,14.60
2023-04-15T01:22:51.486Z,14.20
2023-04-15T01:25:20.770Z,14.30
2023-04-15T01:27:48.716Z,13.70
2023-04-15T01:30:17.488Z,14.20
2023-04-15T01:32:45.519Z,14.40
2023-04-15T01:35:13.927Z,14.30
2023-04-15T01:37:42.305Z,14.60
2023-04-15T01:40:10.481Z,14.40
2023-04-15T01:42:38.566Z,14.20
2023-04-15T01:45:07.398Z,14.70
2023-04-15T01:47:35.463Z,13.90
2023-04-15T01:50:03.888Z,14.30
2023-04-15T01:52:32.320Z,14.30
2023-04-15T01:55:00.245Z,13.70
2023-04-15T01:57:28.303Z,14.40
2023-04-15T01:59:56.809Z,14.20
2023-04-15T02:02:25.041Z,14.30
2023-04-15T02:04:53.745Z,14.00
2023-04-15T02:07:22.000Z,14.40
2023-04-15T02:09:50.003Z,14.50
2023-04-15T02:12:17.953Z,13.60
2023-04-15T02:14:46.450Z,13.60
2023-04-15T02:17:14.412Z,13.80
2023-04-15T02:19:44.632Z,13.90
2023-04-15T02:22:18.731Z,14.20
2023-04-15T02:24:47.630Z,13.90
2023-04-15T02:27:16.917Z,13.80
2023-04-15T02:29:46.069Z,14.00
2023-04-15T02:32:14.202Z,14.20
2023-04-15T02:34:43.205Z,13.90
2023-04-15T02:37:13.105Z,14.40
2023-04-15T02:39:41.182Z,14.30
2023-04-15T02:42:09.148Z,14.30
2023-04-15T02:44:37.828Z,14.20
2023-04-15T02:47:07.376Z,14.20
2023-04-15T02:49:35.475Z,14.40
2023-04-15T02:52:03.578Z,14.20
2023-04-15T02:54:33.066Z,14.90
2023-04-15T02:57:01.808Z,14.50
2023-04-15T02:59:29.769Z,14.60
2023-04-15T03:02:01.183Z,14.60
2023-04-15T03:04:32.529Z,15.00
2023-04-15T03:07:01.907Z,15.80
2023-04-15T03:09:30.482Z,15.90
2023-04-15T03:11:59.708Z,15.90
2023-04-15T03:14:27.778Z,15.70
2023-04-15T03:16:56.211Z,15.40
2023-04-15T03:19:25.256Z,15.80
2023-04-15T03:21:53.217Z,15.90
2023-04-15T03:24:21.292Z,15.80
2023-04-15T03:26:49.325Z,16.40
2023-04-15T03:29:18.038Z,16.20
2023-04-15T03:31:46.535Z,16.20
2023-04-15T03:34:14.488Z,16.50
2023-04-15T03:36:42.809Z,15.80
2023-04-15T03:39:10.811Z,16.90
2023-04-15T03:41:38.748Z,15.90
2023-04-15T03:44:06.885Z,16.40
2023-04-15T03:46:34.997Z,15.50
2023-04-15T03:49:03.343Z,16.30
2023-04-15T03:51:31.871Z,16.40
2023-04-15T03:53:59.880Z,15.80
2023-04-15T03:56:28.081Z,16.20
2023-04-15T03:58:56.326Z,16.60
2023-04-15T04:01:24.397Z,16.00
2023-04-15T04:03:52.568Z,15.80
2023-04-15T04:06:20.752Z,15.80
2023-04-15T04:08:48.817Z,15.60
2023-04-15T04:11:17.360Z,15.10
2023-04-15T04:13:45.580Z,15.80
2023-04-15T04:16:13.670Z,15.50
2023-04-15T04:18:41.624Z,15.70
2023-04-15T04:21:09.691Z,15.90
2023-04-15T04:23:37.669Z,15.30
2023-04-15T04:26:05.711Z,16.00
2023-04-15T04:28:33.650Z,15.70
2023-04-15T04:31:01.870Z,16.00
2023-04-15T04:33:29.836Z,16.00
2023-04-15T04:35:57.771Z,16.10
2023-04-15T04:38:26.167Z,15.50
2023-04-15T04:40:54.237Z,15.60
2023-04-15T04:43:22.693Z,15.40
2023-04-15T04:45:50.740Z,16.30
2023-04-15T04:48:18.803Z,16.40
2023-04-15T04:50:47.338Z,16.10
2023-04-15T04:53:15.404Z,16.10
2023-04-15T04:55:43.348Z,16.40
2023-04-15T04:58:11.855Z,16.90
2023-04-15T05:00:41.314Z,18.50
2023-04-15T05:03:09.832Z,17.80
2023-04-15T05:05:39.747Z,18.90
2023-04-15T05:08:07.816Z,15.30
2023-04-15T05:10:36.517Z,14.90
2023-04-15T05:13:04.691Z,14.70
2023-04-15T05:15:33.578Z,14.80
2023-04-15T05:18:01.712Z,13.90
2023-04-15T05:20:30.026Z,14.20
2023-04-15T05:22:57.946Z,14.80
2023-04-15T05:25:26.220Z,14.90
2023-04-15T05:27:54.114Z,14.80
2023-04-15T05:30:22.804Z,14.40
2023-04-15T05:32:51.137Z,14.10
2023-04-15T05:35:19.335Z,13.80
2023-04-15T05:37:47.874Z,14.30
2023-04-15T05:40:16.428Z,13.30
2023-04-15T05:42:44.393Z,13.90
2023-04-15T05:45:12.397Z,13.80
2023-04-15T05:47:40.487Z,13.40
2023-04-15T05:50:09.501Z,13.80
2023-04-15T05:52:37.471Z,14.00
2023-04-15T05:55:06.414Z,14.30
2023-04-15T05:57:34.349Z,12.70
2023-04-15T06:00:02.312Z,13.10
2023-04-15T06:02:37.925Z,13.00
2023-04-15T06:05:10.918Z,12.80
2023-04-15T06:07:39.133Z,13.40
2023-04-15T06:10:08.030Z,13.60
2023-04-15T06:12:36.283Z,12.60
2023-04-15T06:15:06.767Z,12.50
2023-04-15T06:17:34.828Z,12.30
2023-04-15T06:20:03.865Z,12.10
2023-04-15T06:22:31.877Z,12.70
2023-04-15T06:24:59.943Z,12.30
2023-04-15T06:27:27.889Z,12.70
2023-04-15T06:29:55.888Z,11.80
2023-04-15T06:32:23.852Z,11.30
2023-04-15T06:34:51.838Z,11.90
2023-04-15T06:37:19.871Z,11.90
2023-04-15T06:39:48.035Z,11.50
2023-04-15T06:42:16.314Z,11.30
2023-04-15T06:44:44.384Z,11.40
2023-04-15T06:47:14.805Z,11.70
2023-04-15T06:49:43.283Z,11.20
2023-04-15T06:52:11.564Z,10.40
2023-04-15T06:54:39.566Z,10.60
2023-04-15T06:57:08.020Z,11.20
2023-04-15T06:59:36.294Z,9.70
2023-04-15T07:02:05.012Z,9.80
2023-04-15T07:04:33.788Z,10.40
2023-04-15T07:07:02.857Z,9.90
2023-04-15T07:09:31.642Z,10.40
2023-04-15T07:11:59.718Z,10.00
2023-04-15T07:14:28.090Z,8.80
2023-04-15T07:16:56.558Z,8.60
2023-04-15T07:19:24.700Z,9.60
2023-04-15T07:21:52.724Z,8.40
2023-04-15T07:24:20.837Z,8.70
2023-04-15T07:26:48.961Z,7.40
2023-04-15T07:29:17.334Z,7.50
2023-04-15T07:31:45.296Z,8.30
2023-04-15T07:34:13.304Z,8.90
2023-04-15T07:36:41.275Z,8.20
2023-04-15T07:39:09.309Z,9.20
2023-04-15T07:41:37.517Z,7.80
2023-04-15T07:44:05.576Z,9.00
2023-04-15T07:46:33.691Z,11.50
2023-04-15T07:49:02.040Z,10.20
2023-04-15T07:51:30.780Z,9.50
2023-04-15T07:53:59.172Z,10.20
2023-04-15T07:56:27.307Z,9.70
2023-04-15T07:58:55.277Z,10.40
2023-04-15T08:01:23.243Z,10.00
2023-04-15T08:03:51.785Z,10.80
2023-04-15T08:06:19.936Z,8.40
2023-04-15T08:08:48.353Z,9.30
2023-04-15T08:11:16.381Z,11.60
2023-04-15T08:13:44.341Z,9.60
2023-04-15T08:16:14.669Z,9.60
2023-04-15T08:18:42.696Z,10.20
2023-04-15T08:21:11.410Z,10.60
2023-04-15T08:23:39.623Z,9.00
2023-04-15T08:26:08.835Z,9.80
2023-04-15T08:28:40.135Z,9.60
2023-04-15T08:31:09.620Z,10.30
2023-04-15T08:33:37.774Z,10.00
2023-04-15T08:36:06.813Z,10.10
2023-04-15T08:38:35.218Z,10.70
2023-04-15T08:41:13.597Z,10.00
2023-04-15T08:43:49.549Z,9.00
2023-04-15T08:46:18.001Z,8.80
2023-04-15T08:48:48.186Z,8.10
2023-04-15T08:51:17.888Z,8.00
2023-04-15T08:53:47.553Z,8.20
2023-04-15T08:56:16.979Z,8.30
2023-04-15T08:58:46.667Z,8.20
2023-04-15T09:01:15.208Z,8.10
2023-04-15T09:03:44.144Z,8.30
2023-04-15T09:06:12.467Z,7.60
2023-04-15T09:08:40.709Z,8.40
2023-04-15T09:11:08.856Z,9.60
2023-04-15T09:13:37.256Z,7.30
2023-04-15T09:16:06.477Z,7.00
2023-04-15T09:18:36.271Z,8.00
2023-04-15T09:21:09.663Z,8.30
2023-04-15T09:23:40.100Z,7.40
2023-04-15T09:26:08.564Z,7.00
2023-04-15T09:28:43.649Z,7.10
2023-04-15T09:31:12.242Z,7.40
2023-04-15T09:33:56.504Z,8.10
2023-04-15T09:36:25.316Z,8.60
2023-04-15T09:38:59.366Z,7.50
2023-04-15T09:41:28.738Z,7.60
2023-04-15T09:43:56.901Z,7.30
2023-04-15T09:46:44.539Z,7.60
2023-04-15T09:49:13.617Z,7.60
2023-04-15T09:51:43.401Z,8.50
2023-04-15T09:54:22.589Z,8.40
2023-04-15T09:56:50.637Z,7.80
2023-04-15T09:59:20.102Z,7.80
2023-04-15T10:01:49.386Z,7.70
2023-04-15T10:04:18.233Z,7.60
2023-04-15T10:06:47.426Z,7.20
2023-04-15T10:09:15.367Z,7.00
2023-04-15T10:11:44.412Z,7.50
2023-04-15T10:14:16.121Z,7.10
2023-04-15T10:16:49.173Z,7.30
2023-04-15T10:19:22.009Z,7.10
2023-04-15T10:21:50.797Z,7.00
2023-04-15T10:24:19.644Z,8.10
2023-04-15T10:26:48.129Z,8.10
2023-04-15T10:29:17.062Z,8.60
2023-04-15T10:31:45.520Z,10.10
2023-04-15T10:34:14.156Z,10.20
2023-04-15T10:36:42.133Z,10.10
2023-04-15T10:39:55.271Z,9.50
2023-04-15T10:42:23.290Z,10.20
2023-04-15T10:44:57.297Z,9.40
2023-04-15T10:47:25.695Z,9.90
2023-04-15T10:50:02.624Z,9.00
2023-04-15T10:52:30.657Z,9.60
2023-04-15T10:55:10.814Z,8.90
2023-04-15T10:57:40.480Z,9.20
2023-04-15T11:00:09.094Z,10.10
2023-04-15T11:02:47.746Z,10.50
2023-04-15T11:05:17.807Z,9.50
2023-04-15T11:07:52.348Z,9.50
2023-04-15T11:10:26.333Z,9.60
2023-04-15T11:12:59.441Z,10.10
2023-04-15T11:15:41.772Z,9.80
2023-04-15T11:18:20.420Z,9.20
2023-04-15T11:20:50.843Z,9.90
2023-04-15T11:23:20.674Z,9.90
2023-04-15T11:25:48.922Z,8.60
2023-04-15T11:28:16.877Z,9.00
2023-04-15T11:30:45.000Z,9.00
2023-04-15T11:33:14.012Z,8.50
2023-04-15T11:35:42.464Z,8.40
2023-04-15T11:38:13.061Z,8.50
2023-04-15T11:40:44.562Z,8.40
2023-04-15T11:43:18.713Z,9.50
2023-04-15T11:45:57.126Z,12.50
2023-04-15T11:48:33.507Z,19.40
2023-04-15T11:51:07.041Z,13.60
2023-04-15T11:53:47.210Z,11.40
2023-04-15T11:56:25.158Z,13.00
2023-04-15T11:58:57.383Z,15.60
2023-04-15T12:01:46.945Z,11.80
2023-04-15T12:04:20.885Z,13.70
2023-04-15T12:06:51.285Z,13.20
2023-04-15T12:09:20.520Z,12.60
2023-04-15T12:11:48.584Z,10.00
2023-04-15T12:14:29.545Z,10.40
2023-04-15T12:17:03.662Z,12.20
2023-04-15T12:19:42.434Z,10.30
2023-04-15T12:22:15.740Z,11.80
2023-04-15T12:24:47.972Z,11.00
2023-04-15T12:27:17.686Z,10.20
2023-04-15T12:29:45.808Z,10.10
2023-04-15T12:32:19.929Z,10.60
2023-04-15T12:34:52.510Z,11.30
2023-04-15T12:37:21.268Z,13.80
2023-04-15T12:39:50.631Z,11.20
2023-04-15T12:42:19.124Z,10.60
2023-04-15T12:44:47.479Z,10.30
2023-04-15T12:47:16.128Z,10.30
2023-04-15T12:49:44.191Z,10.40
2023-04-15T12:52:12.171Z,10.90
2023-04-15T12:54:40.111Z,9.50
2023-04-15T12:57:08.381Z,10.20
2023-04-15T12:59:36.679Z,11.10
2023-04-15T13:02:04.907Z,11.40
2023-04-15T13:04:33.335Z,10.50
2023-04-15T13:07:02.470Z,11.00
2023-04-15T13:09:31.753Z,9.60
2023-04-15T13:11:59.885Z,9.50
2023-04-15T13:14:27.842Z,10.30
2023-04-15T13:16:56.015Z,10.00
2023-04-15T13:19:23.997Z,10.10
2023-04-15T13:21:51.974Z,9.40
2023-04-15T13:24:20.036Z,9.20
2023-04-15T13:26:50.142Z,8.80
2023-04-15T13:29:18.944Z,9.30
2023-04-15T13:31:47.104Z,9.10
2023-04-15T13:34:15.051Z,8.00
2023-04-15T13:36:43.062Z,7.70
2023-04-15T13:39:11.171Z,8.50
2023-04-15T13:41:39.194Z,7.10
2023-04-15T13:44:07.313Z,7.00
2023-04-15T13:46:35.669Z,7.10
2023-04-15T13:49:03.642Z,7.10
2023-04-15T13:51:32.073Z,7.30
2023-04-15T13:54:00.013Z,8.10
2023-04-15T13:56:27.951Z,8.20
2023-04-15T13:58:59.094Z,7.70
2023-04-15T14:01:27.475Z,8.70
2023-04-15T14:03:56.248Z,7.70
2023-04-15T14:06:24.913Z,7.50
2023-04-15T14:08:53.260Z,8.90
2023-04-15T14:11:21.205Z,9.80
2023-04-15T14:13:49.147Z,7.90
2023-04-15T14:16:17.120Z,7.80
2023-04-15T14:18:45.364Z,7.20
2023-04-15T14:21:13.422Z,7.00
2023-04-15T14:23:41.457Z,6.60
2023-04-15T14:26:09.480Z,7.30
2023-04-15T14:28:39.217Z,6.20
2023-04-15T14:31:07.579Z,4.90
2023-04-15T14:33:35.617Z,4.30
2023-04-15T14:36:04.153Z,4.60
2023-04-15T14:38:33.918Z,4.80
2023-04-15T14:41:02.214Z,4.50
2023-04-15T14:43:30.257Z,5.60
2023-04-15T14:45:58.306Z,5.80
2023-04-15T14:48:26.591Z,4.90
2023-04-15T14:50:54.678Z,4.90
2023-04-15T14:53:22.610Z,4.10
2023-04-15T14:55:50.616Z,4.70
2023-04-15T14:58:20.411Z,5.30
2023-04-15T15:00:48.494Z,5.90
2023-04-15T15:03:16.882Z,4.20
2023-04-15T15:05:47.025Z,4.00
2023-04-15T15:08:15.507Z,4.10
2023-04-15T15:10:48.524Z,3.40
2023-04-15T15:13:19.098Z,3.20
2023-04-15T15:15:49.871Z,3.10
2023-04-15T15:18:19.424Z,3.00
2023-04-15T15:20:47.933Z,2.90
2023-04-15T15:23:16.186Z,3.60
2023-04-15T15:25:45.908Z,3.00
2023-04-15T15:28:14.073Z,2.70
2023-04-15T15:30:42.135Z,3.20
2023-04-15T15:33:10.085Z,3.60
2023-04-15T15:35:38.174Z,3.80
2023-04-15T15:38:06.505Z,3.20
2023-04-15T15:40:34.531Z,3.10
2023-04-15T15:43:03.105Z,3.20
2023-04-15T15:45:31.254Z,3.50
2023-04-15T15:48:00.391Z,3.50
2023-04-15T15:50:28.528Z,4.90
2023-04-15T15:52:56.593Z,5.10
2023-04-15T15:55:26.023Z,4.80
2023-04-15T15:57:54.567Z,4.40
2023-04-15T16:00:23.368Z,4.40
2023-04-15T16:03:06.847Z,4.10
2023-04-15T16:05:36.548Z,3.80
2023-04-15T16:08:05.068Z,3.90
2023-04-15T16:10:33.358Z,3.90
2023-04-15T16:13:02.158Z,4.40
2023-04-15T16:15:30.330Z,4.30
2023-04-15T16:17:58.366Z,4.30
2023-04-15T16:20:28.378Z,5.30
2023-04-15T16:22:58.464Z,5.40
2023-04-15T16:25:26.757Z,6.50
2023-04-15T16:28:05.394Z,4.70
2023-04-15T16:30:38.883Z,6.00
2023-04-15T16:33:07.572Z,5.60
2023-04-15T16:35:35.588Z,5.90
2023-04-15T16:38:03.765Z,5.50
2023-04-15T16:40:31.844Z,11.40
2023-04-15T16:42:59.799Z,5.30
2023-04-15T16:45:27.767Z,4.60
2023-04-15T16:47:57.057Z,4.90
2023-04-15T16:50:25.248Z,6.60
2023-04-15T16:52:53.420Z,4.80
2023-04-15T16:55:21.637Z,5.60
2023-04-15T16:58:01.507Z,5.70
2023-04-15T17:00:37.096Z,5.30
2023-04-15T17:03:06.288Z,5.40
2023-04-15T17:05:34.758Z,6.00
2023-04-15T17:08:02.730Z,5.50
2023-04-15T17:10:31.362Z,6.70
2023-04-15T17:12:59.970Z,7.60
2023-04-15T17:15:27.941Z,6.20
2023-04-15T17:17:56.029Z,7.10
2023-04-15T17:20:24.153Z,7.70
2023-04-15T17:22:52.254Z,8.40
2023-04-15T17:25:20.349Z,11.20
2023-04-15T17:27:48.265Z,10.10
2023-04-15T17:30:16.263Z,14.30
2023-04-15T17:32:44.406Z,9.60
2023-04-15T17:35:12.357Z,8.80
2023-04-15T17:37:40.506Z,10.80
2023-04-15T17:40:09.194Z,6.40
2023-04-15T17:42:37.199Z,6.90
2023-04-15T17:45:05.877Z,7.40
2023-04-15T17:47:33.937Z,10.20
2023-04-15T17:50:01.912Z,8.70
2023-04-15T17:52:29.898Z,6.70
2023-04-15T17:54:57.785Z,9.80
2023-04-15T17:57:25.755Z,9.40
2023-04-15T17:59:53.850Z,8.90
2023-04-15T18:02:21.969Z,8.60
2023-04-15T18:04:50.316Z,8.10
2023-04-15T18:07:18.477Z,8.10
2023-04-15T18:09:46.607Z,7.70
2023-04-15T18:12:14.613Z,8.80
2023-04-15T18:14:42.674Z,8.20
2023-04-15T18:17:11.346Z,8.50
2023-04-15T18:19:39.254Z,8.40
2023-04-15T18:22:07.378Z,8.80
2023-04-15T18:24:35.545Z,9.40
2023-04-15T18:27:04.087Z,11.70
2023-04-15T18:29:32.124Z,10.60
2023-04-15T18:32:03.101Z,10.20
2023-04-15T18:34:31.335Z,10.00
2023-04-15T18:36:59.434Z,10.20
2023-04-15T18:39:27.898Z,9.80
2023-04-15T18:41:57.398Z,9.90
2023-04-15T18:44:25.456Z,10.30
2023-04-15T18:46:53.448Z,10.50
2023-04-15T18:49:21.512Z,10.40
2023-04-15T18:51:49.715Z,10.60
2023-04-15T18:54:17.746Z,10.80
2023-04-15T18:56:45.919Z,10.10
2023-04-15T18:59:29.106Z,10.60
2023-04-15T19:02:00.165Z,11.60
2023-04-15T19:04:31.065Z,11.80
2023-04-15T19:06:59.387Z,12.30
2023-04-15T19:09:29.401Z,12.00
2023-04-15T19:11:57.789Z,11.80
2023-04-15T19:14:25.973Z,12.00
2023-04-15T19:16:54.099Z,11.20
2023-04-15T19:19:22.273Z,12.60
2023-04-15T19:21:50.590Z,12.00
2023-04-15T19:24:19.455Z,11.30
2023-04-15T19:26:49.026Z,12.30
2023-04-15T19:29:17.734Z,12.90
2023-04-15T19:31:45.778Z,12.20
2023-04-15T19:34:13.769Z,12.00
2023-04-15T19:36:42.186Z,10.70
2023-04-15T19:39:10.434Z,10.00
2023-04-15T19:41:39.454Z,9.90
2023-04-15T19:44:07.515Z,9.70
2023-04-15T19:46:35.841Z,9.20
2023-04-15T19:49:04.366Z,8.20
2023-04-15T19:51:32.590Z,8.90
2023-04-15T19:54:00.940Z,8.90
2023-04-15T19:56:29.539Z,10.50
2023-04-15T19:58:57.700Z,9.90
2023-04-15T20:01:26.016Z,11.10
2023-04-15T20:03:54.700Z,11.20
2023-04-15T20:06:22.894Z,11.80
2023-04-15T20:08:50.941Z,10.30
2023-04-15T20:11:19.224Z,10.40
2023-04-15T20:13:47.242Z,10.10
2023-04-15T20:16:15.214Z,9.70
2023-04-15T20:18:43.272Z,9.40
2023-04-15T20:21:11.238Z,10.40
2023-04-15T20:23:40.124Z,9.50
2023-04-15T20:26:08.302Z,8.90
2023-04-15T20:28:36.271Z,8.90
2023-04-15T20:31:04.307Z,8.50
2023-04-15T20:33:32.410Z,8.40
2023-04-15T20:36:00.491Z,7.50
2023-04-15T20:38:28.650Z,6.70
2023-04-15T20:40:57.955Z,6.70
2023-04-15T20:43:26.329Z,7.20
2023-04-15T20:45:57.523Z,7.10
2023-04-15T20:48:25.854Z,6.40
2023-04-15T20:50:53.795Z,6.50
2023-04-15T20:53:22.101Z,6.80
2023-04-15T20:55:50.140Z,6.70
2023-04-15T20:58:18.140Z,6.30
2023-04-15T21:00:46.562Z,5.90
2023-04-15T21:03:14.737Z,6.00
2023-04-15T21:05:42.859Z,5.80
2023-04-15T21:08:10.810Z,7.00
2023-04-15T21:10:40.228Z,6.60
2023-04-15T21:13:08.413Z,6.70
2023-04-15T21:15:36.550Z,6.30
2023-04-15T21:18:04.470Z,6.50
2023-04-15T21:20:32.369Z,6.40
2023-04-15T21:23:00.376Z,6.40
2023-04-15T21:25:28.341Z,6.50
2023-04-15T21:27:56.300Z,7.30
2023-04-15T21:30:24.268Z,7.70
2023-04-15T21:32:52.402Z,8.20
2023-04-15T21:35:20.419Z,7.90
2023-04-15T21:37:48.388Z,8.30
2023-04-15T21:40:16.468Z,8.50
2023-04-15T21:42:44.627Z,8.80
2023-04-15T21:45:12.710Z,9.20
2023-04-15T21:48:05.320Z,9.60
2023-04-15T21:50:28.552Z,9.60
2023-04-15T21:52:56.778Z,9.90
2023-04-15T21:55:24.884Z,10.00
2023-04-15T21:57:52.880Z,10.10
2023-04-15T22:00:23.145Z,12.50
2023-04-15T22:02:52.270Z,13.10
2023-04-15T22:05:20.614Z,14.10
2023-04-15T22:07:48.635Z,11.40
2023-04-15T22:10:16.863Z,10.00
2023-04-15T22:12:44.778Z,8.70
2023-04-15T22:15:12.853Z,8.90
2023-04-15T22:17:40.897Z,7.50
2023-04-15T22:20:09.633Z,7.70
2023-04-15T22:22:44.134Z,7.60
2023-04-15T22:25:12.786Z,8.00
2023-04-15T22:27:41.066Z,8.20
2023-04-15T22:30:10.625Z,8.20
2023-04-15T22:32:38.749Z,8.20
2023-04-15T22:35:07.594Z,7.60
2023-04-15T22:37:35.707Z,8.00
2023-04-15T22:40:03.930Z,7.70
2023-04-15T22:42:32.118Z,7.70
2023-04-15T22:45:00.099Z,6.90
2023-04-15T22:47:28.275Z,7.30
2023-04-15T22:49:56.326Z,7.00
2023-04-15T22:52:30.632Z,7.20
2023-04-15T22:54:59.790Z,6.70
2023-04-15T22:57:28.732Z,7.00
2023-04-15T22:59:56.856Z,6.60
2023-04-15T23:02:24.883Z,7.40
2023-04-15T23:04:53.332Z,8.40
2023-04-15T23:07:21.445Z,7.60
2023-04-15T23:09:49.571Z,7.00
2023-04-15T23:12:17.761Z,7.30
2023-04-15T23:14:45.857Z,7.20
2023-04-15T23:17:13.808Z,6.80
2023-04-15T23:19:41.726Z,7.20
2023-04-15T23:22:12.230Z,7.40
2023-04-15T23:24:40.212Z,8.00
2023-04-15T23:27:08.170Z,7.20
2023-04-15T23:29:36.497Z,7.40
2023-04-15T23:32:04.761Z,7.30
2023-04-15T23:34:32.806Z,7.50
2023-04-15T23:37:01.148Z,7.40
2023-04-15T23:39:30.604Z,7.70
2023-04-15T23:41:58.562Z,7.90
2023-04-15T23:44:27.150Z,8.20
2023-04-15T23:46:55.206Z,8.10
2023-04-15T23:49:23.351Z,7.80
2023-04-15T23:51:51.470Z,8.40
2023-04-15T23:54:19.425Z,8.10
2023-04-15T23:56:48.254Z,8.70
2023-04-15T23:59:16.444Z,8.80
